Terminal Aerodrome Forecast
Issued by NWS Springfield, MO

Home | Current Version | Previous Version | Text Only | Print | Product List | Glossary On
Versions: 1 2 3 4 5 6 7 8 9 10 11 12 13 14 15
000
FTUS43 KSGF 201700
TAFSGF
TAF
KSGF 201720Z 2018/2118 22014G22KT P6SM SCT070
     FM210100 18010KT P6SM SKC
     FM210600 17009KT P6SM SKC WS020/22040KT
     FM211400 21012G18KT P6SM SKC=

USA.gov is the U.S. government's official web portal to all federal, state and local government web resources and services.